Hauptseite
METAR-TAF:

METAR-TAF

Flughäfen :

Flughafen Nîmes-Alès-Camargue-Cévennes

Nîmes, Frankreich

Breite: 43-45N, Länge: 004-25E, Höhe: 94 m

Beobachtung

Neuester Wetterbericht von vor 16 Minuten, um 18:30 UTC
Wind 10 kt aus Nord/Nordost
Temperatur 9°C
Luftfeuchtigkeit 53%
Luftdruck 1021 hPa
Sichtweite 10 km oder mehr
keine Wolken unter 1500 m und keine Kumulonimbus oder Gewitterwolken

METAR: LFTW 181830Z AUTO 02010KT CAVOK 09/00 Q1021 NOSIG

Zeit: 19:46 (18:46 UTC)

Prognose

Neuester Wetterbericht von vor 4 Stunden und 46 Minuten, um 14:00 UTC
Gültige Prognose vom 18 um 15 UTC bis 19 um 15 UTC
Wind 15 kt aus Nord/Nordwest
Sichtweite 10 km oder mehr
keine Wolken unter 1500 m und keine Kumulonimbus oder Gewitterwolken
Zeitweise
vom 18 um 15 UTC bis 18 um 18 UTC
Wind 15 kt aus Nord/Nordwest, Böen bis zu 25 kt

TAF: LFTW 181400Z 1815/1915 34015KT CAVOK TEMPO 1815/1818 34015G25KT

Wetterbeobachtungen und Prognosen von mehr als 4000 Flughäfen (METAR und TAF Bericht).

Die verfügbaren Stationen werden durch gelbe und rote Markierungen auf der Karte dargestellt.

Führen Sie die Maus auf sie, um den Namen der Station zu sehen.

Darauf klicken, um die Beobachtung von Wetterbeobachtungen und Prognosen zu sehen.

Um die Karte zu ändern : klicken Sie auf den grünen Tasten mit einem schwarzen Kreuz Zum Vergrößern, auf den grünen Button mit einem Gedankenstrich zu verkleinern, oder auf die grünen Pfeile für benachbarte Karten.


METAR-TAF: